Time;durP1;ratioP1;P1;durP2;ratioP2;P2;SDS_P1;SDS_P2;PMS_P1;PMS_P2;Temp;Humidity;BMP_temperature;BMP_pressure;BME280_temperature;BME280_humidity;BME280_pressure;Samples;Min_cycle;Max_cycle;Signal;HPM_P1;HPM_P2
2022/04/07 00:00:21;;;;;;;6.18;2.35;;;12.60;99.90;;;;;;5070790;28;20581;-77
2022/04/07 00:02:49;;;;;;;8.45;3.13;;;12.60;99.90;;;;;;5080282;28;20056;-76
2022/04/07 00:05:16;;;;;;;3.95;2.42;;;12.70;99.90;;;;;;5047257;28;20056;-75
2022/04/07 00:07:44;;;;;;;5.82;2.92;;;12.70;99.90;;;;;;5076845;28;20048;-75
2022/04/07 00:10:12;;;;;;;5.45;3.42;;;12.70;99.90;;;;;;5066147;28;20098;-76
2022/04/07 00:12:39;;;;;;;7.75;2.58;;;12.70;99.90;;;;;;5051544;28;20045;-75
2022/04/07 00:15:07;;;;;;;7.72;3.30;;;12.70;99.90;;;;;;5053080;28;20535;-77
2022/04/07 00:17:35;;;;;;;5.05;3.00;;;12.80;99.90;;;;;;5058812;28;20044;-75
2022/04/07 00:20:03;;;;;;;7.70;2.78;;;12.80;99.90;;;;;;5083730;28;20109;-76
2022/04/07 00:22:31;;;;;;;6.10;2.70;;;12.80;99.90;;;;;;5073144;28;20469;-74
2022/04/07 00:24:59;;;;;;;6.68;2.83;;;12.80;99.90;;;;;;5078092;28;20062;-76
2022/04/07 00:27:26;;;;;;;8.88;2.22;;;12.80;99.90;;;;;;5058743;28;20117;-76
2022/04/07 00:29:54;;;;;;;5.65;2.47;;;12.80;99.90;;;;;;5051824;28;20079;-75
2022/04/07 00:32:21;;;;;;;4.15;2.20;;;12.70;99.90;;;;;;5073346;28;20120;-76
2022/04/07 00:34:54;;;;;;;4.43;2.42;;;12.80;99.90;;;;;;5076777;28;20062;-76
2022/04/07 00:37:23;;;;;;;3.70;2.55;;;12.80;99.90;;;;;;5069031;28;20162;-75
2022/04/07 00:39:51;;;;;;;6.30;3.13;;;12.80;99.90;;;;;;5067208;28;20442;-76
2022/04/07 00:42:19;;;;;;;10.02;2.35;;;12.70;99.90;;;;;;5064662;28;20098;-76
2022/04/07 00:44:46;;;;;;;5.57;2.17;;;12.70;99.90;;;;;;5041083;28;20056;-75
2022/04/07 00:47:14;;;;;;;5.18;2.28;;;12.70;99.90;;;;;;5065504;28;20058;-75
2022/04/07 00:49:41;;;;;;;4.53;3.03;;;12.70;99.90;;;;;;5081476;28;20508;-76
2022/04/07 00:52:09;;;;;;;4.70;1.90;;;12.70;99.90;;;;;;5079787;28;20219;-76
2022/04/07 00:54:37;;;;;;;5.10;2.50;;;12.70;99.90;;;;;;5083037;28;20095;-76
2022/04/07 00:57:06;;;;;;;6.05;2.50;;;12.70;99.90;;;;;;5067767;28;20040;-75
2022/04/07 00:59:35;;;;;;;3.55;2.30;;;12.60;99.90;;;;;;5053028;28;20057;-75
2022/04/07 01:02:04;;;;;;;7.43;2.50;;;12.50;99.90;;;;;;5067226;28;20071;-75
2022/04/07 01:04:31;;;;;;;5.63;2.25;;;12.50;99.90;;;;;;5060250;28;20045;-75
2022/04/07 01:06:59;;;;;;;7.45;2.80;;;12.50;99.90;;;;;;5065851;28;20211;-73
2022/04/07 01:09:28;;;;;;;4.30;2.10;;;12.50;99.90;;;;;;5054821;28;20134;-74
2022/04/07 01:11:56;;;;;;;7.03;3.00;;;12.50;99.90;;;;;;5091857;28;20498;-74
2022/04/07 01:14:24;;;;;;;4.00;1.60;;;12.60;99.90;;;;;;5075246;28;20048;-73
2022/04/07 01:16:52;;;;;;;7.45;2.30;;;12.60;99.90;;;;;;5076215;28;20059;-74
2022/04/07 01:19:19;;;;;;;5.07;2.45;;;12.50;99.90;;;;;;5092814;28;20056;-74
2022/04/07 01:21:48;;;;;;;6.18;3.28;;;12.50;99.90;;;;;;5092631;28;20044;-74
2022/04/07 01:24:18;;;;;;;9.20;2.28;;;12.40;99.90;;;;;;5092343;28;20067;-75
2022/04/07 01:26:46;;;;;;;17.80;3.70;;;12.40;99.90;;;;;;5092481;28;20052;-74
2022/04/07 01:29:15;;;;;;;4.47;2.00;;;12.50;99.90;;;;;;5059321;28;20044;-74
2022/04/07 01:31:43;;;;;;;12.25;2.78;;;12.50;99.90;;;;;;5092568;28;20097;-74
2022/04/07 01:34:15;;;;;;;7.25;2.40;;;12.50;99.90;;;;;;5092330;28;20114;-74
2022/04/07 01:36:46;;;;;;;5.38;2.45;;;12.60;99.90;;;;;;5082889;28;20509;-74
2022/04/07 01:39:18;;;;;;;5.57;2.58;;;12.50;99.90;;;;;;5072502;28;20684;-74
2022/04/07 01:41:46;;;;;;;6.68;2.95;;;12.60;99.90;;;;;;5071833;28;20494;-74
2022/04/07 01:44:15;;;;;;;6.03;2.55;;;12.60;99.90;;;;;;5071883;28;20506;-74
2022/04/07 01:46:42;;;;;;;6.70;2.65;;;12.70;99.90;;;;;;5071530;28;20056;-75
2022/04/07 01:49:11;;;;;;;3.28;2.10;;;12.90;99.90;;;;;;5039167;28;20040;-73
2022/04/07 01:51:38;;;;;;;4.28;2.05;;;13.00;99.90;;;;;;5072113;28;20372;-74
2022/04/07 01:54:11;;;;;;;4.93;2.80;;;13.10;99.90;;;;;;5072270;28;20379;-74
2022/04/07 01:56:43;;;;;;;4.65;2.72;;;13.30;99.90;;;;;;5038991;28;20506;-74
2022/04/07 01:59:12;;;;;;;5.07;1.50;;;13.40;99.90;;;;;;5055126;28;20526;-76
2022/04/07 02:01:39;;;;;;;8.75;2.05;;;13.40;99.90;;;;;;5071826;28;20045;-74
2022/04/07 02:04:07;;;;;;;5.18;2.38;;;13.50;99.90;;;;;;5055440;28;20131;-75
2022/04/07 02:06:34;;;;;;;4.07;1.77;;;13.40;99.90;;;;;;5055385;28;20494;-74
2022/04/07 02:09:02;;;;;;;3.95;1.75;;;13.40;99.90;;;;;;5054362;28;20144;-74
2022/04/07 02:11:32;;;;;;;3.70;2.28;;;13.30;99.90;;;;;;5055002;28;20063;-74
2022/04/07 02:14:00;;;;;;;5.57;1.90;;;13.40;99.90;;;;;;5037743;28;20493;-74
2022/04/07 02:16:30;;;;;;;3.95;1.92;;;13.40;99.90;;;;;;5071241;28;20055;-74
2022/04/07 02:18:58;;;;;;;5.95;2.00;;;13.40;99.90;;;;;;5055290;28;20454;-75
2022/04/07 02:21:25;;;;;;;5.22;1.80;;;13.10;99.90;;;;;;5054451;28;20048;-74
2022/04/07 02:23:53;;;;;;;5.10;2.28;;;12.90;99.90;;;;;;5054651;28;20048;-74
2022/04/07 02:26:20;;;;;;;10.30;2.65;;;12.90;99.90;;;;;;5054476;28;20075;-74
2022/04/07 02:28:48;;;;;;;5.82;2.17;;;12.90;99.90;;;;;;5037897;28;20133;-74
2022/04/07 02:31:16;;;;;;;5.78;2.25;;;12.90;99.90;;;;;;5054794;28;20084;-74
2022/04/07 02:33:45;;;;;;;9.60;2.42;;;12.90;99.90;;;;;;5069195;28;20433;-74
2022/04/07 02:36:17;;;;;;;5.53;2.28;;;12.90;99.90;;;;;;5038210;28;20056;-74
2022/04/07 02:38:45;;;;;;;3.25;1.55;;;12.80;99.90;;;;;;5067129;28;20101;-74
2022/04/07 02:41:13;;;;;;;5.63;2.10;;;12.90;99.90;;;;;;5051026;28;20040;-74
2022/04/07 02:43:41;;;;;;;6.22;2.17;;;12.80;99.90;;;;;;5050822;28;20449;-73
2022/04/07 02:46:10;;;;;;;9.45;2.53;;;12.70;99.90;;;;;;5051116;28;20403;-74
2022/04/07 02:48:38;;;;;;;6.45;2.42;;;12.70;99.90;;;;;;5050749;28;20457;-75
2022/04/07 02:51:06;;;;;;;9.75;2.22;;;12.70;99.90;;;;;;5034753;28;20049;-74
2022/04/07 02:53:33;;;;;;;3.83;1.77;;;12.70;99.90;;;;;;5034661;28;20136;-74
2022/04/07 02:56:01;;;;;;;4.93;2.40;;;12.70;99.90;;;;;;5033973;28;20053;-74
2022/04/07 02:58:28;;;;;;;6.85;2.60;;;12.70;99.90;;;;;;5019744;28;20055;-75
2022/04/07 03:00:56;;;;;;;6.47;2.30;;;12.70;99.90;;;;;;5025573;28;20036;-74
2022/04/07 03:03:23;;;;;;;9.07;2.20;;;12.70;99.90;;;;;;5038446;28;20118;-74
2022/04/07 03:05:51;;;;;;;5.13;2.17;;;12.70;99.90;;;;;;5020626;28;20048;-74
2022/04/07 03:08:19;;;;;;;4.32;2.05;;;12.70;99.90;;;;;;5020523;28;20502;-74
2022/04/07 03:10:47;;;;;;;4.28;1.67;;;12.70;99.90;;;;;;5053809;28;20131;-74
2022/04/07 03:13:14;;;;;;;4.57;1.88;;;12.70;99.90;;;;;;5037198;28;20040;-74
2022/04/07 03:15:42;;;;;;;8.25;2.05;;;12.70;99.90;;;;;;5053315;28;20426;-74
2022/04/07 03:18:11;;;;;;;4.57;1.73;;;12.70;99.90;;;;;;5036271;28;20060;-74
2022/04/07 03:20:38;;;;;;;11.50;2.53;;;12.70;99.90;;;;;;5036240;28;20045;-74
2022/04/07 03:23:06;;;;;;;8.07;2.58;;;12.70;99.90;;;;;;5036995;28;20063;-75
2022/04/07 03:25:34;;;;;;;3.97;2.05;;;12.70;99.90;;;;;;5040327;28;20506;-75
2022/04/07 03:28:01;;;;;;;6.90;2.28;;;12.60;99.90;;;;;;5053489;28;20098;-74
2022/04/07 03:30:29;;;;;;;2.95;1.85;;;12.70;99.90;;;;;;5053040;28;20574;-74
2022/04/07 03:32:56;;;;;;;7.47;2.42;;;12.70;99.90;;;;;;5053624;28;20044;-74
2022/04/07 03:35:24;;;;;;;4.25;1.67;;;12.70;99.90;;;;;;5036758;28;20094;-75
2022/04/07 03:37:52;;;;;;;4.45;2.30;;;12.70;99.90;;;;;;5053005;28;20193;-74
2022/04/07 03:40:20;;;;;;;9.70;1.95;;;12.70;99.90;;;;;;5053413;28;20628;-74
2022/04/07 03:42:47;;;;;;;5.57;1.77;;;12.70;99.90;;;;;;5053189;28;20167;-74
2022/04/07 03:45:15;;;;;;;6.05;1.88;;;12.70;99.90;;;;;;5036614;28;20143;-74
2022/04/07 03:47:43;;;;;;;12.82;2.80;;;12.70;99.90;;;;;;5036797;28;20102;-74
2022/04/07 03:50:10;;;;;;;9.25;1.90;;;12.70;99.90;;;;;;5036747;28;20106;-74
2022/04/07 03:52:38;;;;;;;8.05;2.08;;;12.70;99.90;;;;;;5052965;28;20498;-74
2022/04/07 03:55:06;;;;;;;8.73;2.08;;;12.60;99.90;;;;;;5053006;28;20083;-74
2022/04/07 03:57:34;;;;;;;7.88;2.75;;;12.70;99.90;;;;;;5052968;28;20056;-74
2022/04/07 04:00:04;;;;;;;7.50;2.97;;;12.70;99.90;;;;;;5036087;28;20068;-75
2022/04/07 04:02:38;;;;;;;;;;;12.70;99.90;;;;;;5053136;28;20057;-74
2022/04/07 04:05:06;;;;;;;4.80;2.35;;;12.70;99.90;;;;;;5069463;28;20664;-75
2022/04/07 04:07:33;;;;;;;9.93;2.28;;;12.80;99.90;;;;;;5020505;28;20060;-74
2022/04/07 04:10:01;;;;;;;6.95;3.05;;;12.80;99.90;;;;;;5052841;28;20079;-74
2022/04/07 04:12:28;;;;;;;7.57;2.45;;;12.70;99.90;;;;;;5052869;28;20052;-75
2022/04/07 04:14:56;;;;;;;3.92;1.80;;;12.80;99.90;;;;;;5036066;28;20137;-74
2022/04/07 04:17:27;;;;;;;6.10;2.58;;;12.80;99.90;;;;;;5051918;28;20091;-74
2022/04/07 04:19:55;;;;;;;7.30;2.55;;;12.80;99.90;;;;;;5052489;28;20075;-75
2022/04/07 04:22:23;;;;;;;6.28;3.50;;;12.80;99.90;;;;;;5053053;28;20032;-75
2022/04/07 04:24:51;;;;;;;6.35;2.92;;;12.90;99.90;;;;;;5072697;28;20039;-74
2022/04/07 04:27:19;;;;;;;3.97;1.50;;;12.80;99.90;;;;;;5072773;28;20047;-74
2022/04/07 04:29:46;;;;;;;3.97;2.20;;;12.90;99.90;;;;;;5072436;28;20047;-74
2022/04/07 04:32:14;;;;;;;7.35;2.10;;;12.90;99.90;;;;;;5056174;28;20052;-75
2022/04/07 04:34:41;;;;;;;11.70;3.63;;;13.00;99.90;;;;;;5056157;28;20055;-75
2022/04/07 04:37:09;;;;;;;8.05;2.40;;;13.10;99.90;;;;;;5072627;28;20139;-74
2022/04/07 04:39:37;;;;;;;4.13;2.45;;;13.10;99.90;;;;;;5056066;28;20097;-74
2022/04/07 04:42:05;;;;;;;6.10;2.47;;;13.20;99.90;;;;;;5072583;28;20040;-74
2022/04/07 04:44:33;;;;;;;9.18;2.92;;;13.10;99.90;;;;;;5090195;28;20074;-74
2022/04/07 04:47:01;;;;;;;10.27;4.68;;;13.10;99.90;;;;;;5039100;28;20071;-75
2022/04/07 04:49:28;;;;;;;7.93;3.47;;;13.10;99.90;;;;;;5072793;28;20044;-74
2022/04/07 04:51:56;;;;;;;9.20;2.35;;;13.20;99.90;;;;;;5056109;28;20052;-75
2022/04/07 04:54:24;;;;;;;7.22;3.13;;;13.10;99.90;;;;;;5039295;28;20048;-74
2022/04/07 04:56:51;;;;;;;7.40;3.88;;;13.20;99.90;;;;;;5072280;28;20048;-75
2022/04/07 04:59:19;;;;;;;9.43;2.40;;;13.20;99.90;;;;;;5055743;28;20052;-75
2022/04/07 05:01:47;;;;;;;9.50;2.92;;;13.30;99.90;;;;;;5055556;28;20104;-75
2022/04/07 05:04:14;;;;;;;14.52;3.88;;;13.30;99.90;;;;;;5055322;28;20052;-76
2022/04/07 05:06:42;;;;;;;8.35;3.35;;;13.30;99.90;;;;;;5071656;28;20105;-75
2022/04/07 05:09:10;;;;;;;7.95;3.35;;;13.40;99.90;;;;;;5056086;28;20048;-75
2022/04/07 05:11:37;;;;;;;8.13;3.55;;;13.40;99.90;;;;;;5055793;28;20058;-76
2022/04/07 05:14:05;;;;;;;7.90;3.22;;;13.50;99.90;;;;;;5055695;28;20497;-76
2022/04/07 05:16:33;;;;;;;8.13;2.85;;;13.60;99.90;;;;;;5071670;28;20497;-75
2022/04/07 05:19:01;;;;;;;8.93;2.72;;;13.80;99.90;;;;;;5049402;28;20059;-75
2022/04/07 05:21:28;;;;;;;9.18;2.78;;;13.90;99.90;;;;;;5051954;28;20041;-75
2022/04/07 05:23:56;;;;;;;5.63;2.42;;;14.10;99.90;;;;;;5033608;28;20033;-79
2022/04/07 05:26:24;;;;;;;6.88;2.95;;;14.10;99.90;;;;;;5055890;28;20374;-75
2022/04/07 05:28:52;;;;;;;5.30;2.50;;;14.10;99.90;;;;;;5064526;28;20081;-75
2022/04/07 05:31:20;;;;;;;7.03;3.25;;;14.10;99.90;;;;;;5068908;28;20055;-74
2022/04/07 05:33:48;;;;;;;6.38;2.40;;;14.20;99.90;;;;;;5048760;28;20531;-75
2022/04/07 05:36:16;;;;;;;6.03;3.42;;;14.30;99.90;;;;;;5062936;28;20051;-76
2022/04/07 05:38:44;;;;;;;12.40;3.05;;;14.30;99.90;;;;;;5050814;28;20056;-74
2022/04/07 05:41:12;;;;;;;10.52;3.42;;;14.40;99.90;;;;;;5048935;28;20047;-74
2022/04/07 05:43:39;;;;;;;13.32;3.45;;;14.40;99.90;;;;;;5047810;28;20571;-74
2022/04/07 05:46:07;;;;;;;9.10;2.97;;;14.50;99.90;;;;;;5080098;28;20083;-74
2022/04/07 05:48:35;;;;;;;13.73;4.82;;;14.40;99.90;;;;;;5043082;28;20055;-73
2022/04/07 05:51:03;;;;;;;7.07;3.65;;;14.30;99.90;;;;;;5072747;28;20039;-74
2022/04/07 05:53:30;;;;;;;9.15;3.30;;;14.20;99.90;;;;;;5065665;28;20097;-78
2022/04/07 05:55:59;;;;;;;9.35;3.13;;;14.00;99.90;;;;;;5074948;28;20822;-73
2022/04/07 05:58:27;;;;;;;7.55;2.78;;;14.10;99.90;;;;;;5040507;28;20059;-75
2022/04/07 06:00:54;;;;;;;7.82;3.25;;;14.10;99.90;;;;;;5075314;28;20494;-75
2022/04/07 06:03:22;;;;;;;9.13;4.10;;;14.10;99.90;;;;;;5066974;28;20040;-75
2022/04/07 06:05:52;;;;;;;8.88;3.78;;;14.10;99.90;;;;;;5045521;28;20071;-74
2022/04/07 06:08:21;;;;;;;12.73;3.80;;;14.10;99.90;;;;;;5079634;28;20044;-75
2022/04/07 06:10:49;;;;;;;8.25;2.92;;;14.00;99.90;;;;;;5065586;28;20135;-75
2022/04/07 06:13:17;;;;;;;5.55;3.42;;;14.20;99.90;;;;;;5081208;28;20048;-75
2022/04/07 06:15:44;;;;;;;7.80;3.75;;;14.20;99.90;;;;;;5058662;28;20120;-75
2022/04/07 06:18:13;;;;;;;8.85;4.00;;;14.30;99.90;;;;;;5040087;28;20062;-75
2022/04/07 06:20:41;;;;;;;9.68;5.50;;;14.40;99.90;;;;;;5057722;28;20048;-74
2022/04/07 06:23:09;;;;;;;10.20;4.65;;;14.40;99.90;;;;;;5058149;28;20478;-74
2022/04/07 06:25:37;;;;;;;10.10;4.85;;;14.50;99.90;;;;;;5041302;28;20058;-74
2022/04/07 06:28:05;;;;;;;8.43;4.72;;;14.60;99.90;;;;;;5074744;28;20044;-75
2022/04/07 06:30:32;;;;;;;11.70;4.70;;;14.60;99.90;;;;;;5057845;28;20043;-74
2022/04/07 06:33:00;;;;;;;14.35;3.95;;;15.00;99.90;;;;;;5041462;28;20498;-74
2022/04/07 06:35:28;;;;;;;13.63;4.30;;;15.50;99.90;;;;;;5092849;28;20078;-74
2022/04/07 06:37:57;;;;;;;10.50;3.58;;;15.90;99.90;;;;;;5058235;28;20055;-74
2022/04/07 06:40:29;;;;;;;8.23;4.18;;;16.30;99.90;;;;;;5073712;28;20391;-74
2022/04/07 06:42:58;;;;;;;7.70;2.97;;;16.60;99.90;;;;;;5057885;28;20059;-75
2022/04/07 06:45:27;;;;;;;9.05;3.05;;;17.00;99.90;;;;;;5092601;28;20109;-75
2022/04/07 06:47:55;;;;;;;12.30;4.03;;;17.20;99.90;;;;;;5074791;28;20053;-74
2022/04/07 06:50:25;;;;;;;7.00;2.83;;;17.40;99.90;;;;;;5057561;28;20040;-74
2022/04/07 06:52:54;;;;;;;5.57;3.38;;;17.70;99.90;;;;;;5073703;28;20482;-74
2022/04/07 06:55:22;;;;;;;13.13;3.60;;;17.90;99.90;;;;;;5041362;28;20097;-75
2022/04/07 06:58:03;;;;;;;10.18;3.83;;;18.10;99.90;;;;;;5040783;28;20044;-74
2022/04/07 07:00:34;;;;;;;5.93;2.13;;;18.30;99.90;;;;;;5056658;28;20056;-74
2022/04/07 07:03:04;;;;;;;8.32;2.08;;;18.50;99.90;;;;;;5057317;28;20044;-73
2022/04/07 07:05:35;;;;;;;4.47;1.83;;;18.70;98.70;;;;;;5040446;28;20105;-74
2022/04/07 07:08:17;;;;;;;4.38;1.77;;;18.70;97.90;;;;;;5092002;28;20144;-74
2022/04/07 07:10:46;;;;;;;7.00;1.75;;;18.40;97.00;;;;;;5057623;28;20047;-76
2022/04/07 07:13:20;;;;;;;3.75;1.30;;;18.20;96.90;;;;;;5057469;28;20117;-73
2022/04/07 07:15:51;;;;;;;3.90;1.48;;;18.00;97.00;;;;;;5057675;28;20127;-75
2022/04/07 07:18:19;;;;;;;3.55;2.28;;;17.80;97.50;;;;;;5038819;28;20568;-73
2022/04/07 07:20:47;;;;;;;6.53;1.98;;;17.70;97.80;;;;;;5037337;28;20116;-73
2022/04/07 07:23:15;;;;;;;9.25;3.33;;;17.60;97.80;;;;;;5053755;28;20056;-73
2022/04/07 07:25:44;;;;;;;6.10;1.48;;;17.70;98.00;;;;;;5037445;28;20052;-76
2022/04/07 07:28:12;;;;;;;5.32;1.27;;;17.70;97.80;;;;;;5071679;28;20533;-73
2022/04/07 07:30:39;;;;;;;9.02;1.80;;;17.70;97.80;;;;;;5020201;28;20048;-74
2022/04/07 07:33:07;;;;;;;2.55;1.42;;;17.70;97.10;;;;;;5020923;28;20494;-73
2022/04/07 07:35:35;;;;;;;3.50;1.23;;;17.80;97.30;;;;;;5053912;28;20519;-73
2022/04/07 07:38:04;;;;;;;9.80;2.95;;;17.90;96.90;;;;;;5020729;28;20049;-74
2022/04/07 07:40:33;;;;;;;5.10;1.83;;;18.00;96.90;;;;;;5053404;28;20068;-75
2022/04/07 07:43:02;;;;;;;5.03;2.15;;;18.00;97.40;;;;;;5036316;28;20522;-73
2022/04/07 07:45:34;;;;;;;8.25;1.70;;;18.00;97.30;;;;;;5037113;28;20045;-73
2022/04/07 07:48:29;;;;;;;4.10;1.48;;;17.80;97.40;;;;;;5036356;28;20045;-73
2022/04/07 07:50:57;;;;;;;4.32;1.73;;;17.70;97.90;;;;;;5036547;28;20133;-73
2022/04/07 07:53:25;;;;;;;6.03;2.40;;;17.50;98.30;;;;;;5052972;28;20221;-73
2022/04/07 07:55:54;;;;;;;4.68;1.60;;;17.40;98.90;;;;;;5036516;28;20054;-74
2022/04/07 07:58:23;;;;;;;5.03;1.90;;;17.40;99.00;;;;;;5052486;28;20383;-73
2022/04/07 08:00:52;;;;;;;6.30;1.90;;;17.60;99.30;;;;;;5053196;28;20809;-73
2022/04/07 08:03:20;;;;;;;5.72;2.60;;;18.00;98.90;;;;;;5036434;28;20405;-77
2022/04/07 08:05:48;;;;;;;4.88;1.65;;;18.30;98.30;;;;;;5036303;28;20052;-74
2022/04/07 08:08:16;;;;;;;5.75;1.65;;;18.90;98.50;;;;;;5035961;28;20077;-74
2022/04/07 08:10:44;;;;;;;11.30;2.97;;;19.30;98.00;;;;;;5019406;28;20505;-73
2022/04/07 08:13:11;;;;;;;6.38;1.40;;;19.40;97.60;;;;;;5037913;28;20379;-75
2022/04/07 08:15:39;;;;;;;6.97;1.83;;;19.30;97.40;;;;;;5052703;28;20048;-72
2022/04/07 08:18:08;;;;;;;2.70;1.52;;;19.00;97.20;;;;;;5052642;28;20123;-74
2022/04/07 08:20:36;;;;;;;3.75;1.80;;;18.70;97.40;;;;;;5069079;28;20053;-73
2022/04/07 08:23:04;;;;;;;4.95;1.42;;;18.50;98.00;;;;;;5052105;28;20135;-73
2022/04/07 08:25:31;;;;;;;5.00;2.33;;;18.30;98.50;;;;;;5052738;28;20657;-74
2022/04/07 08:27:59;;;;;;;3.97;1.88;;;18.20;98.90;;;;;;5052458;28;20040;-73
2022/04/07 08:30:27;;;;;;;4.93;2.05;;;18.00;99.30;;;;;;5052197;28;20067;-73
2022/04/07 08:32:54;;;;;;;3.50;1.80;;;17.90;99.50;;;;;;5052645;28;20057;-73
2022/04/07 08:35:22;;;;;;;5.22;2.00;;;17.80;99.60;;;;;;5052647;28;20056;-74
2022/04/07 08:37:50;;;;;;;7.90;2.78;;;17.70;99.90;;;;;;5036813;28;20055;-74
2022/04/07 08:40:22;;;;;;;6.20;2.50;;;17.70;99.90;;;;;;5069660;28;20052;-72
2022/04/07 08:42:50;;;;;;;6.07;2.13;;;17.70;99.90;;;;;;5052113;28;20506;-74
2022/04/07 08:45:17;;;;;;;5.28;1.85;;;18.00;99.90;;;;;;5035658;28;20056;-72
2022/04/07 08:47:48;;;;;;;4.22;1.55;;;18.50;99.80;;;;;;5051850;28;20048;-71
2022/04/07 08:50:21;;;;;;;5.35;1.70;;;18.70;98.60;;;;;;5052031;28;20498;-71
2022/04/07 08:52:49;;;;;;;4.20;1.70;;;18.80;98.00;;;;;;5052719;28;20463;-71
2022/04/07 08:55:17;;;;;;;5.22;1.40;;;19.00;97.90;;;;;;5035968;28;20052;-72
2022/04/07 08:57:45;;;;;;;2.60;1.48;;;19.10;97.30;;;;;;5052369;28;20406;-72
2022/04/07 09:00:13;;;;;;;4.40;1.80;;;19.20;97.60;;;;;;5035191;28;20060;-72
2022/04/07 09:02:40;;;;;;;7.82;2.05;;;19.00;97.70;;;;;;5053365;28;20064;-71
2022/04/07 09:05:11;;;;;;;4.60;2.47;;;19.00;98.10;;;;;;5056231;28;20049;-72
2022/04/07 09:07:39;;;;;;;7.35;1.88;;;19.00;98.00;;;;;;5039662;28;20151;-71
2022/04/07 09:10:07;;;;;;;6.32;1.92;;;18.70;98.20;;;;;;5056224;28;20127;-71
2022/04/07 09:12:38;;;;;;;3.83;2.10;;;18.80;98.40;;;;;;5039487;28;20139;-72
2022/04/07 09:15:07;;;;;;;6.05;2.85;;;18.50;98.40;;;;;;5056217;28;20086;-72
2022/04/07 09:17:52;;;;;;;8.00;2.47;;;18.40;98.80;;;;;;5022527;28;20083;-71
2022/04/07 09:20:21;;;;;;;7.22;3.33;;;18.40;98.90;;;;;;5039264;28;20052;-71
2022/04/07 09:22:59;;;;;;;7.22;2.50;;;18.60;99.10;;;;;;5039399;28;20052;-72
2022/04/07 09:25:27;;;;;;;7.90;2.85;;;18.80;99.10;;;;;;5073585;28;20045;-74
2022/04/07 09:28:00;;;;;;;9.15;3.47;;;18.80;98.90;;;;;;5039210;28;20059;-71
2022/04/07 09:30:37;;;;;;;13.10;3.80;;;18.90;98.60;;;;;;5022800;28;20067;-71
2022/04/07 09:33:05;;;;;;;5.63;2.28;;;18.90;98.90;;;;;;5073661;28;20148;-73
2022/04/07 09:35:32;;;;;;;8.07;2.65;;;19.30;98.80;;;;;;5073409;28;20044;-71
2022/04/07 09:38:04;;;;;;;6.38;2.15;;;19.60;98.40;;;;;;5055420;28;20398;-71
2022/04/07 09:40:31;;;;;;;6.60;2.22;;;19.70;97.50;;;;;;5038620;28;20506;-70
2022/04/07 09:42:59;;;;;;;6.18;2.58;;;19.90;97.50;;;;;;5039175;28;20048;-71
2022/04/07 09:45:27;;;;;;;6.00;2.25;;;20.00;97.10;;;;;;5056536;28;20087;-72
2022/04/07 09:47:55;;;;;;;7.45;2.10;;;19.90;96.80;;;;;;5023661;28;20095;-72
2022/04/07 09:50:24;;;;;;;7.45;2.92;;;19.90;96.50;;;;;;5022441;28;20130;-71
2022/04/07 09:53:04;;;;;;;8.90;3.15;;;19.90;96.60;;;;;;5038601;28;20509;-77
2022/04/07 09:55:40;;;;;;;15.48;4.05;;;19.90;96.50;;;;;;5038696;28;20044;-72
2022/04/07 09:58:10;;;;;;;7.47;2.10;;;20.00;96.30;;;;;;5055154;28;20115;-71
2022/04/07 10:00:38;;;;;;;6.80;2.65;;;19.90;96.50;;;;;;5021734;28;20396;-71
2022/04/07 10:03:08;;;;;;;7.45;2.75;;;19.80;96.70;;;;;;5021813;28;20106;-71
2022/04/07 10:05:38;;;;;;;5.75;2.72;;;19.70;96.80;;;;;;5056656;28;20056;-71
2022/04/07 10:08:07;;;;;;;8.43;2.72;;;19.50;97.30;;;;;;5093235;28;20096;-73
2022/04/07 10:10:35;;;;;;;12.57;2.92;;;19.40;97.90;;;;;;5058295;28;20051;-70
2022/04/07 10:13:04;;;;;;;9.60;2.97;;;19.40;98.00;;;;;;5057601;28;20390;-71
2022/04/07 10:15:35;;;;;;;7.80;2.92;;;19.30;98.10;;;;;;5057130;28;20051;-71
2022/04/07 10:18:08;;;;;;;7.03;2.95;;;19.30;98.00;;;;;;5041589;28;20090;-76
2022/04/07 10:20:44;;;;;;;9.27;2.63;;;19.20;98.00;;;;;;5092611;28;20052;-71
2022/04/07 10:23:24;;;;;;;6.80;2.03;;;19.10;97.80;;;;;;5074860;28;20455;-72
2022/04/07 10:25:52;;;;;;;6.78;2.05;;;19.10;97.70;;;;;;5058292;28;20048;-71
2022/04/07 10:28:20;;;;;;;7.18;2.70;;;19.00;97.50;;;;;;5075095;28;20097;-70
2022/04/07 10:30:53;;;;;;;8.30;2.38;;;18.80;97.60;;;;;;5074068;28;20032;-73
2022/04/07 10:33:48;;;;;;;8.30;2.40;;;18.60;97.90;;;;;;5074803;28;20048;-71
2022/04/07 10:36:23;;;;;;;5.90;3.45;;;18.50;98.30;;;;;;5066833;28;20063;-73
2022/04/07 10:38:52;;;;;;;7.05;2.95;;;18.40;98.70;;;;;;5092332;28;20044;-73
2022/04/07 10:41:38;;;;;;;7.93;2.40;;;18.50;99.00;;;;;;5074451;28;20048;-72
2022/04/07 10:44:11;;;;;;;6.45;3.33;;;18.50;99.50;;;;;;5041202;28;20052;-72
2022/04/07 10:46:41;;;;;;;8.35;2.85;;;18.60;99.50;;;;;;5091999;28;20055;-71
2022/04/07 10:49:12;;;;;;;6.85;3.22;;;18.80;99.30;;;;;;5073894;28;20090;-74
2022/04/07 10:51:46;;;;;;;10.10;2.63;;;19.00;99.00;;;;;;5073988;28;20046;-73
2022/04/07 10:54:14;;;;;;;4.90;2.25;;;19.30;98.80;;;;;;5057102;28;20051;-72
2022/04/07 10:56:50;;;;;;;8.43;2.47;;;19.40;98.70;;;;;;5057225;28;20093;-74
2022/04/07 10:59:22;;;;;;;;;;;19.40;98.60;;;;;;5073946;28;20098;-73
2022/04/07 11:02:06;;;;;;;6.75;2.95;;;19.30;98.80;;;;;;5056691;28;20270;-73
2022/04/07 11:04:40;;;;;;;10.98;4.22;;;19.20;99.30;;;;;;5073280;28;20036;-72
2022/04/07 11:07:15;;;;;;;14.27;4.85;;;18.90;99.90;;;;;;5088745;28;20048;-71
2022/04/07 11:09:58;;;;;;;14.52;4.55;;;18.60;99.90;;;;;;5056600;28;20063;-71
2022/04/07 11:12:59;;;;;;;12.23;4.60;;;18.30;99.90;;;;;;5072819;28;20505;-72
2022/04/07 11:15:44;;;;;;;11.50;3.97;;;18.00;99.90;;;;;;5056733;28;20036;-72
2022/04/07 11:18:47;;;;;;;9.52;3.35;;;17.80;99.90;;;;;;5056533;28;20040;-73
2022/04/07 11:21:15;;;;;;;12.23;3.50;;;17.70;99.90;;;;;;5073043;28;20642;-71
2022/04/07 11:23:49;;;;;;;9.00;4.15;;;17.60;99.90;;;;;;5056787;28;20044;-72
2022/04/07 11:26:27;;;;;;;19.75;5.65;;;17.50;99.90;;;;;;5055771;28;20503;-73
2022/04/07 11:29:06;;;;;;;7.43;3.85;;;17.60;99.90;;;;;;5072778;28;20102;-72
2022/04/07 11:31:48;;;;;;;11.18;4.60;;;17.60;99.90;;;;;;5040055;28;20079;-72
2022/04/07 11:34:49;;;;;;;7.20;4.07;;;17.60;99.90;;;;;;5055899;28;20048;-72
2022/04/07 11:37:19;;;;;;;11.02;4.28;;;17.70;99.90;;;;;;5040010;28;20540;-72
2022/04/07 11:39:52;;;;;;;10.63;3.65;;;17.80;99.90;;;;;;5055947;28;20044;-71
2022/04/07 11:42:22;;;;;;;6.53;3.35;;;17.80;99.90;;;;;;5055691;28;20040;-73
2022/04/07 11:44:58;;;;;;;6.22;3.75;;;17.80;99.90;;;;;;5072345;28;20083;-73
2022/04/07 11:47:33;;;;;;;9.63;3.10;;;17.70;99.90;;;;;;5072856;28;20535;-75
2022/04/07 11:50:02;;;;;;;9.73;2.75;;;17.70;99.90;;;;;;5038602;28;20066;-72
2022/04/07 11:52:32;;;;;;;5.05;3.13;;;17.70;99.90;;;;;;5055647;28;20048;-72
2022/04/07 11:55:02;;;;;;;8.82;2.63;;;17.60;99.90;;;;;;5071768;28;20052;-72
2022/04/07 11:57:32;;;;;;;8.20;4.35;;;17.50;99.90;;;;;;5072746;28;20079;-72
2022/04/07 12:00:01;;;;;;;9.55;3.70;;;17.50;99.90;;;;;;5055042;28;20097;-72
2022/04/07 12:02:37;;;;;;;10.80;4.15;;;17.40;99.90;;;;;;5056502;28;20059;-72
2022/04/07 12:05:07;;;;;;;7.47;2.72;;;17.30;99.90;;;;;;5087206;28;20060;-74
2022/04/07 12:07:35;;;;;;;13.88;2.95;;;17.30;99.90;;;;;;5072218;28;20082;-75
2022/04/07 12:10:09;;;;;;;7.50;3.25;;;17.20;99.90;;;;;;5071885;28;20723;-72
2022/04/07 12:12:40;;;;;;;3.92;2.25;;;17.20;99.90;;;;;;5072528;28;20044;-71
2022/04/07 12:15:09;;;;;;;5.57;2.97;;;17.20;99.90;;;;;;5055881;28;20055;-72
2022/04/07 12:18:03;;;;;;;4.50;2.90;;;17.20;99.90;;;;;;5055645;28;20077;-71
2022/04/07 12:20:31;;;;;;;4.50;2.70;;;17.30;99.90;;;;;;5056246;28;20454;-73
2022/04/07 12:23:13;;;;;;;8.48;3.67;;;17.30;99.90;;;;;;5056609;28;20474;-73
2022/04/07 12:25:43;;;;;;;4.90;2.90;;;17.40;99.90;;;;;;5056283;28;20074;-72
2022/04/07 12:28:20;;;;;;;8.02;2.92;;;17.50;99.90;;;;;;5055821;28;20593;-72
2022/04/07 12:30:55;;;;;;;5.70;2.47;;;17.70;99.90;;;;;;5055524;28;20048;-72
2022/04/07 12:33:40;;;;;;;6.43;2.63;;;17.70;99.90;;;;;;5072626;28;20062;-73
2022/04/07 12:36:26;;;;;;;6.63;2.88;;;17.70;99.90;;;;;;5072460;28;20040;-72
2022/04/07 12:38:59;;;;;;;4.95;2.72;;;17.60;99.90;;;;;;5090410;28;20040;-72
2022/04/07 12:41:37;;;;;;;4.90;2.30;;;17.50;99.90;;;;;;5056001;28;20052;-72
2022/04/07 12:44:06;;;;;;;6.60;3.20;;;17.50;99.90;;;;;;5039627;28;20051;-72
2022/04/07 12:46:44;;;;;;;5.63;2.83;;;17.50;99.90;;;;;;5072137;28;20073;-73
2022/04/07 12:49:12;;;;;;;9.43;3.50;;;17.40;99.90;;;;;;5045468;28;20051;-72
2022/04/07 12:51:41;;;;;;;6.93;3.63;;;17.30;99.90;;;;;;5051941;28;20454;-72
2022/04/07 12:54:15;;;;;;;5.45;2.90;;;17.30;99.90;;;;;;5050522;28;20044;-71
2022/04/07 12:56:43;;;;;;;9.07;3.05;;;17.20;99.90;;;;;;5072364;28;20065;-73
2022/04/07 12:59:12;;;;;;;9.23;3.30;;;17.20;99.90;;;;;;5066612;28;20056;-72